Stacy, North Carolina
Current Conditions -  °F | °C
As of 9:56 AM on Friday 31 Oct 2014 (Local Time) from KNBT Reporting Station
Clear Clear  
Wind Chill: 64°   Ceiling: Unl
Heat Index: 64°   Visibility: 7mi
Dew Point: 47°   Wind: 16mph
Humidity: 54%   Direction: 10°N
Pressure: 29.86"   Gusts: NA
Location:  34.85°N, 76.42°W
Report Text: KNBT 311356Z AUTO 01014KT 7SM CLR 18/08 A2986 RMK AO2 SLP117 T01780083 PNO
Loading
Personal Weather Stations






























Interactive Weather Map
Tropical Storm Tracking
New forecast layout! Learn more

10-Day Weather Forecast

Advertisements
Track Severe Weather on mobile